createdAt,value
2023-05-09T00:02:06.257Z,85.00
2023-05-09T00:04:34.088Z,85.10
2023-05-09T00:07:01.405Z,85.10
2023-05-09T00:09:28.608Z,85.10
2023-05-09T00:11:55.855Z,85.10
2023-05-09T00:14:24.825Z,85.10
2023-05-09T00:16:53.589Z,85.10
2023-05-09T00:19:20.854Z,85.30
2023-05-09T00:21:48.033Z,85.40
2023-05-09T00:24:15.289Z,85.60
2023-05-09T00:26:42.487Z,85.60
2023-05-09T00:29:10.271Z,85.60
2023-05-09T00:31:37.509Z,85.70
2023-05-09T00:34:04.714Z,85.70
2023-05-09T00:36:32.702Z,85.90
2023-05-09T00:38:59.890Z,85.80
2023-05-09T00:41:27.126Z,85.90
2023-05-09T00:43:54.453Z,85.90
2023-05-09T00:46:21.954Z,86.00
2023-05-09T00:48:49.309Z,86.10
2023-05-09T00:51:16.954Z,86.10
2023-05-09T00:53:45.788Z,86.30
2023-05-09T00:56:13.702Z,86.30
2023-05-09T00:58:41.336Z,86.40
2023-05-09T01:01:08.721Z,86.40
2023-05-09T01:03:36.579Z,86.40
2023-05-09T01:06:29.430Z,86.50
2023-05-09T01:09:03.686Z,86.50
2023-05-09T01:11:44.252Z,86.50
2023-05-09T01:14:37.624Z,86.70
2023-05-09T01:17:33.530Z,86.60
2023-05-09T01:20:26.967Z,86.60
2023-05-09T01:23:13.310Z,86.60
2023-05-09T01:25:48.997Z,86.60
2023-05-09T01:28:29.413Z,86.50
2023-05-09T01:30:57.621Z,86.70
2023-05-09T01:33:26.911Z,86.70
2023-05-09T01:35:59.800Z,86.60
2023-05-09T01:38:29.655Z,86.60
2023-05-09T01:40:59.852Z,86.70
2023-05-09T01:43:29.698Z,86.70
2023-05-09T01:45:58.478Z,86.80
2023-05-09T01:48:28.082Z,87.80
2023-05-09T01:50:57.435Z,86.80
2023-05-09T01:53:25.714Z,86.70
2023-05-09T01:55:54.069Z,86.70
2023-05-09T01:58:23.526Z,86.20
2023-05-09T02:00:51.703Z,86.30
2023-05-09T02:03:19.983Z,86.20
2023-05-09T02:05:48.566Z,86.20
2023-05-09T02:08:17.383Z,86.20
2023-05-09T02:10:46.216Z,86.20
2023-05-09T02:13:13.492Z,86.20
2023-05-09T02:15:42.136Z,86.00
2023-05-09T02:18:09.496Z,86.20
2023-05-09T02:20:36.853Z,86.30
2023-05-09T02:23:04.507Z,86.30
2023-05-09T02:25:33.701Z,86.20
2023-05-09T02:28:02.481Z,86.10
2023-05-09T02:30:45.717Z,86.20
2023-05-09T02:33:14.328Z,86.20
2023-05-09T02:35:44.462Z,86.40
2023-05-09T02:38:14.260Z,86.20
2023-05-09T02:40:44.284Z,86.10
2023-05-09T02:43:11.633Z,86.00
2023-05-09T02:45:38.931Z,86.20
2023-05-09T02:48:08.770Z,86.30
2023-05-09T02:50:38.243Z,86.30
2023-05-09T02:53:06.167Z,86.50
2023-05-09T02:55:33.578Z,86.50
2023-05-09T02:58:12.760Z,86.80
2023-05-09T03:00:42.969Z,87.00
2023-05-09T03:03:10.759Z,87.10
2023-05-09T03:05:38.258Z,87.30
2023-05-09T03:08:05.668Z,87.30
2023-05-09T03:10:34.664Z,87.50
2023-05-09T03:13:02.120Z,87.50
2023-05-09T03:15:32.089Z,87.50
2023-05-09T03:18:00.440Z,87.60
2023-05-09T03:20:27.824Z,87.90
2023-05-09T03:22:58.434Z,88.10
2023-05-09T03:25:26.385Z,88.10
2023-05-09T03:27:53.627Z,88.30
2023-05-09T03:30:21.049Z,88.20
2023-05-09T03:32:49.978Z,88.30
2023-05-09T03:35:17.404Z,88.50
2023-05-09T03:37:44.694Z,88.60
2023-05-09T03:40:12.164Z,88.50
2023-05-09T03:42:46.697Z,88.60
2023-05-09T03:45:14.274Z,88.40
2023-05-09T03:47:42.733Z,88.80
2023-05-09T03:50:10.904Z,88.80
2023-05-09T03:52:38.240Z,88.70
2023-05-09T03:55:07.193Z,88.70
2023-05-09T03:57:36.435Z,88.50
2023-05-09T04:00:08.110Z,88.50
2023-05-09T04:02:42.369Z,88.40
2023-05-09T04:05:16.750Z,88.50
2023-05-09T04:07:44.459Z,88.40
2023-05-09T04:10:12.170Z,88.40
2023-05-09T04:12:39.483Z,88.30
2023-05-09T04:15:07.662Z,88.30
2023-05-09T04:17:35.802Z,88.10
2023-05-09T04:20:03.376Z,88.00
2023-05-09T04:22:31.114Z,88.00
2023-05-09T04:24:58.480Z,87.90
2023-05-09T04:27:27.935Z,87.90
2023-05-09T04:29:55.689Z,87.50
2023-05-09T04:32:23.271Z,87.50
2023-05-09T04:34:50.884Z,87.30
2023-05-09T04:37:23.355Z,88.40
2023-05-09T04:39:51.176Z,87.50
2023-05-09T04:42:24.657Z,87.40
2023-05-09T04:44:52.456Z,88.00
2023-05-09T04:47:21.914Z,88.50
2023-05-09T04:49:49.157Z,88.70
2023-05-09T04:52:17.053Z,88.70
2023-05-09T04:54:44.325Z,88.90
2023-05-09T04:57:18.093Z,89.30
2023-05-09T04:59:50.884Z,89.70
2023-05-09T05:02:19.428Z,89.70
2023-05-09T05:04:48.216Z,90.00
2023-05-09T05:07:16.228Z,90.00
2023-05-09T05:09:44.580Z,90.20
2023-05-09T05:12:12.021Z,90.00
2023-05-09T05:14:40.935Z,90.10
2023-05-09T05:17:10.334Z,90.40
2023-05-09T05:19:37.497Z,90.30
2023-05-09T05:22:06.610Z,90.10
2023-05-09T05:24:36.194Z,90.20
2023-05-09T05:27:03.477Z,90.40
2023-05-09T05:29:30.987Z,90.40
2023-05-09T05:31:58.260Z,90.20
2023-05-09T05:34:25.554Z,90.00
2023-05-09T05:36:52.931Z,89.80
2023-05-09T05:39:20.646Z,89.50
2023-05-09T05:41:48.924Z,88.90
2023-05-09T05:44:17.220Z,88.90
2023-05-09T05:46:44.986Z,88.60
2023-05-09T05:49:12.519Z,88.80
2023-05-09T05:51:39.828Z,88.80
2023-05-09T05:54:09.118Z,89.00
2023-05-09T05:56:37.208Z,88.20
2023-05-09T05:59:04.681Z,88.50
2023-05-09T06:01:31.886Z,88.50
2023-05-09T06:03:59.276Z,88.80
2023-05-09T06:06:29.659Z,89.30
2023-05-09T06:08:57.456Z,89.70
2023-05-09T06:11:24.792Z,90.00
2023-05-09T06:13:52.087Z,89.80
2023-05-09T06:16:20.683Z,90.00
2023-05-09T06:18:53.411Z,90.00
2023-05-09T06:21:23.166Z,90.10
2023-05-09T06:24:07.707Z,90.30
2023-05-09T06:26:36.389Z,90.40
2023-05-09T06:29:06.300Z,90.60
2023-05-09T06:31:38.781Z,90.40
2023-05-09T06:34:06.703Z,90.70
2023-05-09T06:36:34.748Z,90.60
2023-05-09T06:39:01.995Z,90.50
2023-05-09T06:41:29.320Z,90.20
2023-05-09T06:43:56.727Z,90.40
2023-05-09T06:46:24.047Z,90.50
2023-05-09T06:48:51.294Z,90.80
2023-05-09T06:51:18.603Z,90.70
2023-05-09T06:53:45.758Z,90.60
2023-05-09T06:56:13.810Z,90.70
2023-05-09T06:58:41.139Z,90.50
2023-05-09T07:01:08.441Z,90.50
2023-05-09T07:03:35.777Z,90.70
2023-05-09T07:06:03.039Z,90.70
2023-05-09T07:08:30.272Z,90.70
2023-05-09T07:10:57.898Z,90.70
2023-05-09T07:13:25.336Z,90.70
2023-05-09T07:15:52.616Z,90.60
2023-05-09T07:18:19.843Z,90.90
2023-05-09T07:20:47.063Z,90.70
2023-05-09T07:23:14.321Z,90.70
2023-05-09T07:25:41.736Z,91.00
2023-05-09T07:28:08.940Z,90.90
2023-05-09T07:30:36.178Z,90.90
2023-05-09T07:33:03.719Z,91.10
2023-05-09T07:35:31.398Z,91.00
2023-05-09T07:37:58.568Z,91.30
2023-05-09T07:40:26.123Z,91.20
2023-05-09T07:42:54.986Z,91.20
2023-05-09T07:45:23.872Z,91.20
2023-05-09T07:47:51.291Z,91.30
2023-05-09T07:50:18.613Z,91.20
2023-05-09T07:52:45.819Z,91.20
2023-05-09T07:55:13.171Z,91.30
2023-05-09T07:57:40.705Z,91.00
2023-05-09T08:00:08.955Z,91.10
2023-05-09T08:02:45.226Z,91.10
2023-05-09T08:05:13.899Z,91.00
2023-05-09T08:07:41.370Z,91.10
2023-05-09T08:10:09.544Z,91.00
2023-05-09T08:12:36.837Z,90.90
2023-05-09T08:15:04.570Z,90.90
2023-05-09T08:17:31.761Z,91.20
2023-05-09T08:19:58.957Z,90.80
2023-05-09T08:22:26.154Z,90.80
2023-05-09T08:24:53.335Z,90.80
2023-05-09T08:27:20.602Z,91.00
2023-05-09T08:29:47.943Z,91.00
2023-05-09T08:32:15.482Z,90.80
2023-05-09T08:34:42.793Z,91.00
2023-05-09T08:37:10.428Z,91.20
2023-05-09T08:39:38.639Z,90.90
2023-05-09T08:42:09.146Z,90.70
2023-05-09T08:44:36.608Z,91.20
2023-05-09T08:47:04.815Z,91.00
2023-05-09T08:49:33.328Z,91.10
2023-05-09T08:52:01.227Z,91.10
2023-05-09T08:54:29.918Z,91.10
2023-05-09T08:56:57.820Z,90.90
2023-05-09T08:59:26.488Z,90.90
2023-05-09T09:01:54.669Z,90.70
2023-05-09T09:04:22.422Z,90.80
2023-05-09T09:06:51.707Z,91.00
2023-05-09T09:09:20.233Z,91.00
2023-05-09T09:11:48.165Z,91.30
2023-05-09T09:14:27.577Z,91.20
2023-05-09T09:16:57.111Z,91.30
2023-05-09T09:19:30.318Z,91.00
2023-05-09T09:22:00.314Z,90.90
2023-05-09T09:24:27.562Z,90.90
2023-05-09T09:26:54.753Z,91.30
2023-05-09T09:29:22.897Z,91.20
2023-05-09T09:31:54.932Z,91.00
2023-05-09T09:34:23.660Z,91.20
2023-05-09T09:36:52.719Z,91.40
2023-05-09T09:39:21.614Z,91.00
2023-05-09T09:41:49.027Z,91.00
2023-05-09T09:44:18.046Z,90.80
2023-05-09T09:46:55.821Z,91.10
2023-05-09T09:49:25.144Z,91.40
2023-05-09T09:51:53.324Z,91.10
2023-05-09T09:54:20.848Z,90.80
2023-05-09T09:56:50.420Z,90.40
2023-05-09T09:59:19.283Z,90.80
2023-05-09T10:02:06.631Z,90.80
2023-05-09T10:04:41.298Z,90.80
2023-05-09T10:07:13.557Z,91.10
2023-05-09T10:09:43.789Z,91.10
2023-05-09T10:12:11.864Z,91.10
2023-05-09T10:14:42.487Z,91.20
2023-05-09T10:17:14.063Z,91.30
2023-05-09T10:19:45.892Z,91.30
2023-05-09T10:22:16.551Z,91.00
2023-05-09T10:24:46.431Z,91.20
2023-05-09T10:27:14.774Z,91.00
2023-05-09T10:29:46.340Z,91.70
2023-05-09T10:32:20.508Z,91.00
2023-05-09T10:34:51.285Z,90.90
2023-05-09T10:37:20.182Z,91.10
2023-05-09T10:39:53.040Z,91.20
2023-05-09T10:42:20.860Z,91.70
2023-05-09T10:44:48.367Z,91.20
2023-05-09T10:47:16.228Z,91.00
2023-05-09T10:49:44.622Z,91.00
2023-05-09T10:52:12.410Z,91.10
2023-05-09T10:54:39.671Z,91.40
2023-05-09T10:57:10.057Z,91.50
2023-05-09T10:59:40.141Z,91.40
2023-05-09T11:02:15.949Z,91.60
2023-05-09T11:04:44.239Z,91.00
2023-05-09T11:07:26.223Z,90.70
2023-05-09T11:10:07.130Z,91.30
2023-05-09T11:12:58.986Z,91.70
2023-05-09T11:15:27.868Z,91.30
2023-05-09T11:18:10.152Z,91.20
2023-05-09T11:20:44.272Z,91.20
2023-05-09T11:23:17.225Z,91.20
2023-05-09T11:25:47.752Z,91.20
2023-05-09T11:28:32.815Z,91.90
2023-05-09T11:31:14.356Z,91.00
2023-05-09T11:33:43.448Z,91.50
2023-05-09T11:36:29.224Z,91.30
2023-05-09T11:39:08.245Z,91.60
2023-05-09T11:41:43.742Z,91.20
2023-05-09T11:44:19.757Z,91.10
2023-05-09T11:46:48.763Z,91.10
2023-05-09T14:50:33.434Z,91.60
2023-05-09T14:53:01.151Z,91.50
2023-05-09T14:55:28.387Z,91.60
2023-05-09T14:57:56.107Z,91.30
2023-05-09T15:00:25.544Z,91.30
2023-05-09T15:02:53.118Z,91.30
2023-05-09T15:05:20.355Z,91.40
2023-05-09T15:07:47.538Z,91.70
2023-05-09T15:10:14.941Z,91.60
2023-05-09T15:12:44.801Z,91.60
2023-05-09T15:15:20.532Z,91.50
2023-05-09T15:17:47.988Z,91.40
2023-05-09T15:20:17.566Z,91.50
2023-05-09T15:22:49.611Z,91.00
2023-05-09T15:25:17.493Z,91.20
2023-05-09T15:27:45.098Z,91.50
2023-05-09T15:30:12.816Z,91.70
2023-05-09T15:32:42.756Z,91.40
2023-05-09T15:35:10.283Z,91.50
2023-05-09T15:37:37.710Z,91.60
2023-05-09T15:40:05.388Z,91.30
2023-05-09T15:42:32.584Z,91.30
2023-05-09T15:44:59.818Z,91.40
2023-05-09T15:47:27.074Z,91.70
2023-05-09T15:49:54.566Z,91.60
2023-05-09T15:52:21.890Z,91.60
2023-05-09T15:54:49.192Z,91.80
2023-05-09T15:57:17.536Z,91.50
2023-05-09T15:59:44.869Z,91.70
2023-05-09T16:02:12.322Z,91.70
2023-05-09T16:04:39.569Z,91.40
2023-05-09T16:07:06.880Z,91.30
2023-05-09T16:09:34.114Z,91.40
2023-05-09T16:12:01.707Z,91.20
2023-05-09T16:14:28.928Z,91.20
2023-05-09T16:16:56.160Z,91.60
2023-05-09T16:19:23.354Z,91.40
2023-05-09T16:21:50.707Z,91.50
2023-05-09T16:24:17.967Z,91.50
2023-05-09T16:26:45.213Z,91.30
2023-05-09T16:29:13.604Z,91.30
2023-05-09T16:31:40.950Z,91.50
2023-05-09T16:34:08.427Z,91.50
2023-05-09T16:36:38.648Z,91.40
2023-05-09T16:39:05.816Z,91.80
2023-05-09T16:41:33.136Z,91.70
2023-05-09T16:44:00.340Z,91.50
2023-05-09T16:46:27.552Z,91.50
2023-05-09T16:48:55.259Z,91.70
2023-05-09T16:51:22.453Z,91.80
2023-05-09T16:53:49.661Z,91.40
2023-05-09T16:56:16.951Z,91.50
2023-05-09T16:58:44.904Z,91.60
2023-05-09T17:01:12.333Z,91.90
2023-05-09T17:03:39.918Z,91.90
2023-05-09T17:06:07.415Z,91.70
2023-05-09T17:08:34.813Z,91.50
2023-05-09T17:11:01.984Z,91.50
2023-05-09T17:13:29.318Z,91.80
2023-05-09T17:15:56.881Z,91.60
2023-05-09T17:18:36.059Z,91.70
2023-05-09T17:21:05.427Z,91.70
2023-05-09T17:23:32.724Z,91.60
2023-05-09T17:26:00.066Z,91.70
2023-05-09T17:28:27.439Z,91.70
2023-05-09T17:30:54.651Z,91.80
2023-05-09T17:33:21.840Z,91.70
2023-05-09T17:35:49.948Z,91.60
2023-05-09T17:38:17.588Z,91.30
2023-05-09T17:40:45.206Z,91.30
2023-05-09T17:43:13.245Z,91.70
2023-05-09T17:45:40.464Z,91.80
2023-05-09T17:48:08.169Z,91.80
2023-05-09T17:50:35.460Z,91.60
2023-05-09T17:53:02.658Z,91.70
2023-05-09T17:55:30.318Z,91.50
2023-05-09T17:57:57.497Z,91.40
2023-05-09T18:00:24.663Z,91.40
2023-05-09T18:02:52.012Z,91.30
2023-05-09T18:05:19.364Z,91.30
2023-05-09T18:07:46.554Z,91.30
2023-05-09T18:10:13.924Z,91.40
2023-05-09T18:12:41.680Z,91.40
2023-05-09T18:15:10.314Z,91.20
2023-05-09T18:17:37.856Z,91.20
2023-05-09T18:20:06.786Z,91.20
2023-05-09T18:22:34.143Z,91.20
2023-05-09T18:25:01.916Z,91.30
2023-05-09T18:27:29.282Z,91.20
2023-05-09T18:29:56.624Z,91.10
2023-05-09T18:32:23.967Z,91.10
2023-05-09T18:34:51.628Z,91.10
2023-05-09T18:37:18.902Z,91.20
2023-05-09T18:39:46.153Z,91.30
2023-05-09T18:42:15.926Z,91.30
2023-05-09T18:44:43.628Z,91.10
2023-05-09T18:47:11.258Z,91.10
2023-05-09T18:49:38.804Z,91.10
2023-05-09T18:52:06.077Z,91.20
2023-05-09T18:54:33.286Z,91.20
2023-05-09T18:57:00.488Z,91.30
2023-05-09T18:59:27.792Z,91.20
2023-05-09T19:01:55.008Z,91.20
2023-05-09T19:04:22.229Z,91.20
2023-05-09T19:06:49.585Z,90.90
2023-05-09T19:09:16.810Z,91.20
2023-05-09T19:11:44.093Z,91.40
2023-05-09T19:14:11.261Z,91.40
2023-05-09T19:16:38.509Z,91.30
2023-05-09T19:19:05.691Z,91.40
2023-05-09T19:21:34.159Z,91.40
2023-05-09T19:24:03.655Z,91.30
2023-05-09T19:26:30.857Z,91.30
2023-05-09T19:28:58.158Z,91.30
2023-05-09T19:31:25.638Z,91.40
2023-05-09T19:33:53.152Z,91.40
2023-05-09T19:36:20.366Z,91.40
2023-05-09T19:38:47.686Z,91.40
2023-05-09T19:41:14.975Z,91.40
2023-05-09T19:43:42.242Z,91.30
2023-05-09T19:46:09.704Z,91.30
2023-05-09T19:48:36.960Z,91.30
2023-05-09T19:51:04.508Z,91.30
2023-05-09T19:53:31.758Z,91.40
2023-05-09T19:55:58.972Z,91.40
2023-05-09T19:58:27.701Z,91.40
2023-05-09T20:00:55.211Z,91.40
2023-05-09T20:03:22.928Z,91.30
2023-05-09T20:08:35.737Z,91.20
2023-05-09T20:11:03.173Z,91.10
2023-05-09T20:13:30.457Z,91.70
2023-05-09T20:15:59.178Z,91.30
2023-05-09T20:18:26.862Z,91.30
2023-05-09T20:20:54.760Z,91.40
2023-05-09T20:23:22.308Z,91.40
2023-05-09T20:25:49.720Z,91.50
2023-05-09T20:28:20.152Z,91.40
2023-05-09T20:30:47.540Z,91.40
2023-05-09T20:33:15.362Z,91.40
2023-05-09T20:35:45.422Z,91.50
2023-05-09T20:38:12.729Z,91.50
2023-05-09T20:40:41.268Z,91.50
2023-05-09T20:43:08.699Z,91.60
2023-05-09T20:45:38.992Z,91.60
2023-05-09T20:48:06.648Z,91.60
2023-05-09T20:50:33.972Z,91.60
2023-05-09T20:53:01.264Z,91.50
2023-05-09T20:55:28.577Z,91.60
2023-05-09T20:57:55.828Z,91.70
2023-05-09T21:00:23.058Z,91.60
2023-05-09T21:02:50.786Z,91.60
2023-05-09T21:05:18.115Z,91.60
2023-05-09T21:07:45.410Z,91.60
2023-05-09T21:10:12.957Z,91.60
2023-05-09T21:12:40.326Z,91.60
2023-05-09T21:15:08.166Z,91.60
2023-05-09T21:17:35.478Z,91.70
2023-05-09T21:20:02.782Z,91.60
2023-05-09T21:22:30.209Z,91.60
2023-05-09T21:24:57.454Z,91.50
2023-05-09T21:27:24.720Z,91.50
2023-05-09T21:29:51.965Z,91.50
2023-05-09T21:32:19.250Z,91.50
2023-05-09T21:34:47.980Z,91.50
2023-05-09T21:37:15.378Z,91.60
2023-05-09T21:39:42.659Z,91.60
2023-05-09T21:42:09.927Z,91.60
2023-05-09T21:44:37.155Z,91.60
2023-05-09T21:47:04.505Z,91.60
2023-05-09T21:49:31.834Z,91.60
2023-05-09T21:51:59.341Z,91.60
2023-05-09T21:54:26.613Z,91.60
2023-05-09T21:56:53.831Z,91.70
2023-05-09T21:59:22.233Z,91.70
2023-05-09T22:01:49.618Z,91.60
2023-05-09T22:04:16.904Z,91.70
2023-05-09T22:06:44.136Z,91.20
2023-05-09T22:09:11.440Z,91.60
2023-05-09T22:11:40.371Z,91.60
2023-05-09T22:14:10.120Z,91.60
2023-05-09T22:16:37.967Z,91.70
2023-05-09T22:19:05.283Z,91.70
2023-05-09T22:21:32.536Z,91.60
2023-05-09T22:23:59.747Z,91.60
2023-05-09T22:26:27.089Z,91.60
2023-05-09T22:28:56.310Z,91.60
2023-05-09T22:31:23.519Z,91.60
2023-05-09T22:33:50.861Z,91.60
2023-05-09T22:36:18.180Z,91.70
2023-05-09T22:38:45.444Z,91.60
2023-05-09T22:41:12.820Z,91.60
2023-05-09T22:43:40.138Z,91.60
2023-05-09T22:46:07.453Z,91.60
2023-05-09T22:48:34.850Z,91.60
2023-05-09T22:51:02.128Z,91.60
2023-05-09T22:53:29.384Z,91.60
2023-05-09T22:55:56.746Z,91.60
2023-05-09T22:58:23.954Z,91.60
2023-05-09T23:00:51.468Z,91.60
2023-05-09T23:03:18.971Z,91.60
2023-05-09T23:05:46.227Z,91.60
2023-05-09T23:08:13.422Z,91.60
2023-05-09T23:10:42.738Z,91.60
2023-05-09T23:13:10.056Z,91.60
2023-05-09T23:15:37.292Z,91.60
2023-05-09T23:18:04.680Z,91.60
2023-05-09T23:20:31.934Z,91.60
2023-05-09T23:22:59.115Z,91.60
2023-05-09T23:25:26.350Z,91.50
2023-05-09T23:27:54.209Z,91.60
2023-05-09T23:30:21.456Z,91.60
2023-05-09T23:32:48.625Z,91.60
2023-05-09T23:35:15.896Z,91.60
2023-05-09T23:37:43.125Z,91.50
2023-05-09T23:40:10.888Z,91.60
2023-05-09T23:42:38.118Z,91.50
2023-05-09T23:45:08.263Z,91.50
2023-05-09T23:47:35.480Z,91.50
2023-05-09T23:50:03.000Z,91.50
2023-05-09T23:52:30.420Z,91.50
2023-05-09T23:54:57.582Z,91.50
2023-05-09T23:57:24.817Z,91.50
2023-05-09T23:59:52.168Z,91.40
